sensor_id;sensor_type;location;lat;lon;timestamp;pressure;altitude;pressure_sealevel;temperature;humidity
13593;BME280;6867;50.998;4.250;2023-04-06T00:00:01;101213.88;;;9.87;53.89
13593;BME280;6867;50.998;4.250;2023-04-06T00:02:30;101217.31;;;10.03;54.28
13593;BME280;6867;50.998;4.250;2023-04-06T00:04:57;101165.47;;;10.02;53.76
13593;BME280;6867;50.998;4.250;2023-04-06T00:07:24;101147.09;;;9.99;52.75
13593;BME280;6867;50.998;4.250;2023-04-06T00:09:51;101144.97;;;9.94;52.85
13593;BME280;6867;50.998;4.250;2023-04-06T00:12:18;101136.75;;;9.96;52.74
13593;BME280;6867;50.998;4.250;2023-04-06T00:14:44;101140.03;;;9.91;52.96
13593;BME280;6867;50.998;4.250;2023-04-06T00:17:11;101135.47;;;9.92;53.62
13593;BME280;6867;50.998;4.250;2023-04-06T00:19:39;101145.38;;;9.91;52.89
13593;BME280;6867;50.998;4.250;2023-04-06T00:22:06;101120.78;;;9.88;52.79
13593;BME280;6867;50.998;4.250;2023-04-06T00:24:33;101129.28;;;9.91;52.81
13593;BME280;6867;50.998;4.250;2023-04-06T00:27:00;101131.84;;;10.00;52.70
13593;BME280;6867;50.998;4.250;2023-04-06T00:29:27;101122.09;;;9.98;52.79
13593;BME280;6867;50.998;4.250;2023-04-06T00:31:54;101129.00;;;10.08;52.63
13593;BME280;6867;50.998;4.250;2023-04-06T00:34:20;101116.88;;;10.18;52.76
13593;BME280;6867;50.998;4.250;2023-04-06T00:36:49;101131.53;;;10.16;53.17
13593;BME280;6867;50.998;4.250;2023-04-06T00:39:15;101131.03;;;10.06;52.78
13593;BME280;6867;50.998;4.250;2023-04-06T00:41:46;101141.31;;;10.02;52.60
13593;BME280;6867;50.998;4.250;2023-04-06T00:44:15;101135.94;;;9.95;53.48
13593;BME280;6867;50.998;4.250;2023-04-06T00:46:42;101133.75;;;9.84;52.76
13593;BME280;6867;50.998;4.250;2023-04-06T00:49:09;101118.03;;;9.81;52.94
13593;BME280;6867;50.998;4.250;2023-04-06T00:51:35;101109.03;;;9.89;52.53
13593;BME280;6867;50.998;4.250;2023-04-06T00:54:04;101079.75;;;9.94;52.35
13593;BME280;6867;50.998;4.250;2023-04-06T00:56:31;101085.75;;;9.96;51.84
13593;BME280;6867;50.998;4.250;2023-04-06T00:58:58;101082.41;;;9.87;52.57
13593;BME280;6867;50.998;4.250;2023-04-06T01:01:24;101093.16;;;9.94;52.91
13593;BME280;6867;50.998;4.250;2023-04-06T01:03:51;101085.56;;;9.97;52.59
13593;BME280;6867;50.998;4.250;2023-04-06T01:06:19;101085.84;;;9.81;52.98
13593;BME280;6867;50.998;4.250;2023-04-06T01:08:46;101090.25;;;9.89;52.97
13593;BME280;6867;50.998;4.250;2023-04-06T01:11:14;101093.22;;;10.01;52.30
13593;BME280;6867;50.998;4.250;2023-04-06T01:13:41;101076.38;;;9.85;52.30
13593;BME280;6867;50.998;4.250;2023-04-06T01:16:07;101086.41;;;9.70;53.49
13593;BME280;6867;50.998;4.250;2023-04-06T01:18:35;101111.41;;;9.77;52.81
13593;BME280;6867;50.998;4.250;2023-04-06T01:21:02;101111.16;;;9.72;53.22
13593;BME280;6867;50.998;4.250;2023-04-06T01:23:30;101096.16;;;9.56;53.30
13593;BME280;6867;50.998;4.250;2023-04-06T01:25:57;101108.25;;;9.45;54.16
13593;BME280;6867;50.998;4.250;2023-04-06T01:28:24;101121.84;;;9.44;53.52
13593;BME280;6867;50.998;4.250;2023-04-06T01:30:50;101111.44;;;9.34;54.12
13593;BME280;6867;50.998;4.250;2023-04-06T01:33:17;101122.03;;;9.21;54.69
13593;BME280;6867;50.998;4.250;2023-04-06T01:35:44;101117.13;;;9.25;54.50
13593;BME280;6867;50.998;4.250;2023-04-06T01:38:11;101111.56;;;9.26;54.53
13593;BME280;6867;50.998;4.250;2023-04-06T01:40:39;101098.53;;;9.23;54.32
13593;BME280;6867;50.998;4.250;2023-04-06T01:43:05;101084.56;;;9.28;53.73
13593;BME280;6867;50.998;4.250;2023-04-06T01:45:33;101085.34;;;9.21;53.41
13593;BME280;6867;50.998;4.250;2023-04-06T01:47:59;101065.91;;;9.19;53.27
13593;BME280;6867;50.998;4.250;2023-04-06T01:50:26;101052.97;;;9.23;53.04
13593;BME280;6867;50.998;4.250;2023-04-06T01:52:53;101062.69;;;9.24;53.29
13593;BME280;6867;50.998;4.250;2023-04-06T01:55:20;101071.09;;;9.21;53.42
13593;BME280;6867;50.998;4.250;2023-04-06T01:57:48;101075.06;;;9.25;53.80
13593;BME280;6867;50.998;4.250;2023-04-06T02:00:15;101068.44;;;9.21;53.99
13593;BME280;6867;50.998;4.250;2023-04-06T02:02:42;101041.63;;;9.21;53.34
13593;BME280;6867;50.998;4.250;2023-04-06T02:05:09;101047.09;;;9.34;53.36
13593;BME280;6867;50.998;4.250;2023-04-06T02:07:36;101061.56;;;9.40;53.45
13593;BME280;6867;50.998;4.250;2023-04-06T02:10:03;101041.75;;;9.34;53.68
13593;BME280;6867;50.998;4.250;2023-04-06T02:12:30;101044.41;;;9.34;53.12
13593;BME280;6867;50.998;4.250;2023-04-06T02:14:58;101046.47;;;9.32;52.85
13593;BME280;6867;50.998;4.250;2023-04-06T02:17:25;101040.78;;;9.20;53.18
13593;BME280;6867;50.998;4.250;2023-04-06T02:19:52;101045.88;;;9.15;54.15
13593;BME280;6867;50.998;4.250;2023-04-06T02:22:18;101064.47;;;9.17;53.98
13593;BME280;6867;50.998;4.250;2023-04-06T02:24:45;101057.56;;;9.08;53.81
13593;BME280;6867;50.998;4.250;2023-04-06T02:27:13;101066.91;;;9.12;54.27
13593;BME280;6867;50.998;4.250;2023-04-06T02:29:40;101065.34;;;9.03;54.54
13593;BME280;6867;50.998;4.250;2023-04-06T02:32:08;101072.88;;;9.14;53.94
13593;BME280;6867;50.998;4.250;2023-04-06T02:34:35;101067.47;;;9.07;54.61
13593;BME280;6867;50.998;4.250;2023-04-06T02:37:02;101063.22;;;8.98;54.55
13593;BME280;6867;50.998;4.250;2023-04-06T02:39:28;101070.38;;;8.91;54.59
13593;BME280;6867;50.998;4.250;2023-04-06T02:41:55;101072.97;;;8.84;55.21
13593;BME280;6867;50.998;4.250;2023-04-06T02:44:22;101082.03;;;8.83;55.60
13593;BME280;6867;50.998;4.250;2023-04-06T02:46:49;101082.16;;;8.75;54.65
13593;BME280;6867;50.998;4.250;2023-04-06T02:49:17;101076.78;;;8.75;55.11
13593;BME280;6867;50.998;4.250;2023-04-06T02:51:44;101089.41;;;8.81;55.52
13593;BME280;6867;50.998;4.250;2023-04-06T02:54:11;101085.28;;;8.79;55.10
13593;BME280;6867;50.998;4.250;2023-04-06T02:56:37;101089.53;;;8.73;55.14
13593;BME280;6867;50.998;4.250;2023-04-06T02:59:04;101084.28;;;8.65;55.37
13593;BME280;6867;50.998;4.250;2023-04-06T03:01:31;101078.28;;;8.63;55.45
13593;BME280;6867;50.998;4.250;2023-04-06T03:03:58;101068.22;;;8.65;55.67
13593;BME280;6867;50.998;4.250;2023-04-06T03:06:27;101081.69;;;8.57;55.34
13593;BME280;6867;50.998;4.250;2023-04-06T03:08:53;101085.50;;;8.47;55.63
13593;BME280;6867;50.998;4.250;2023-04-06T03:11:20;101085.97;;;8.51;56.17
13593;BME280;6867;50.998;4.250;2023-04-06T03:13:47;101089.31;;;8.53;55.67
13593;BME280;6867;50.998;4.250;2023-04-06T03:16:14;101088.06;;;8.56;56.24
13593;BME280;6867;50.998;4.250;2023-04-06T03:18:40;101078.03;;;8.58;55.67
13593;BME280;6867;50.998;4.250;2023-04-06T03:21:10;101083.34;;;8.72;55.92
13593;BME280;6867;50.998;4.250;2023-04-06T03:23:38;101087.81;;;8.65;55.90
13593;BME280;6867;50.998;4.250;2023-04-06T03:26:05;101096.00;;;8.64;55.68
13593;BME280;6867;50.998;4.250;2023-04-06T03:28:31;101094.91;;;8.58;56.75
13593;BME280;6867;50.998;4.250;2023-04-06T03:30:58;101105.06;;;8.63;56.46
13593;BME280;6867;50.998;4.250;2023-04-06T03:33:25;101066.81;;;8.69;56.07
13593;BME280;6867;50.998;4.250;2023-04-06T03:35:52;101052.44;;;8.70;55.27
13593;BME280;6867;50.998;4.250;2023-04-06T03:38:19;101049.81;;;8.77;55.68
13593;BME280;6867;50.998;4.250;2023-04-06T03:40:47;101047.03;;;9.06;54.50
13593;BME280;6867;50.998;4.250;2023-04-06T03:43:14;101010.09;;;9.02;54.16
13593;BME280;6867;50.998;4.250;2023-04-06T03:45:41;101007.84;;;9.05;53.56
13593;BME280;6867;50.998;4.250;2023-04-06T03:48:07;101045.81;;;9.09;54.46
13593;BME280;6867;50.998;4.250;2023-04-06T03:50:34;101075.81;;;9.19;55.25
13593;BME280;6867;50.998;4.250;2023-04-06T03:53:01;101072.75;;;9.22;55.05
13593;BME280;6867;50.998;4.250;2023-04-06T03:55:30;101066.38;;;9.23;55.08
13593;BME280;6867;50.998;4.250;2023-04-06T03:57:58;101051.75;;;9.26;54.84
13593;BME280;6867;50.998;4.250;2023-04-06T04:00:24;101048.72;;;9.29;54.17
13593;BME280;6867;50.998;4.250;2023-04-06T04:02:51;101039.19;;;9.26;54.59
13593;BME280;6867;50.998;4.250;2023-04-06T04:05:18;101037.91;;;9.22;54.84
13593;BME280;6867;50.998;4.250;2023-04-06T04:07:50;101032.34;;;9.23;54.44
13593;BME280;6867;50.998;4.250;2023-04-06T04:10:17;101043.94;;;9.24;54.29
13593;BME280;6867;50.998;4.250;2023-04-06T04:12:43;101047.88;;;9.28;54.36
13593;BME280;6867;50.998;4.250;2023-04-06T04:15:12;101044.41;;;9.34;53.97
13593;BME280;6867;50.998;4.250;2023-04-06T04:17:38;101043.78;;;9.32;54.06
13593;BME280;6867;50.998;4.250;2023-04-06T04:20:06;101045.81;;;9.30;54.83
13593;BME280;6867;50.998;4.250;2023-04-06T04:22:33;101045.81;;;9.30;54.18
13593;BME280;6867;50.998;4.250;2023-04-06T04:25:00;101055.34;;;9.33;54.61
13593;BME280;6867;50.998;4.250;2023-04-06T04:27:26;101061.78;;;9.38;54.91
13593;BME280;6867;50.998;4.250;2023-04-06T04:29:53;101053.34;;;9.41;54.33
13593;BME280;6867;50.998;4.250;2023-04-06T04:32:21;101059.59;;;9.48;54.72
13593;BME280;6867;50.998;4.250;2023-04-06T04:34:48;101058.97;;;9.46;54.04
13593;BME280;6867;50.998;4.250;2023-04-06T04:37:15;101051.38;;;9.50;54.48
13593;BME280;6867;50.998;4.250;2023-04-06T04:39:41;101059.19;;;9.52;53.85
13593;BME280;6867;50.998;4.250;2023-04-06T04:42:08;101072.63;;;9.52;54.88
13593;BME280;6867;50.998;4.250;2023-04-06T04:44:35;101061.31;;;9.56;54.39
13593;BME280;6867;50.998;4.250;2023-04-06T04:47:02;101064.44;;;9.60;54.37
13593;BME280;6867;50.998;4.250;2023-04-06T04:49:30;101068.38;;;9.64;54.44
13593;BME280;6867;50.998;4.250;2023-04-06T04:51:57;101064.28;;;9.68;54.73
13593;BME280;6867;50.998;4.250;2023-04-06T04:54:24;101064.28;;;9.68;54.40
13593;BME280;6867;50.998;4.250;2023-04-06T04:56:51;101069.06;;;9.72;54.45
13593;BME280;6867;50.998;4.250;2023-04-06T04:59:18;101080.38;;;9.68;54.87
13593;BME280;6867;50.998;4.250;2023-04-06T05:01:45;101072.34;;;9.68;55.41
13593;BME280;6867;50.998;4.250;2023-04-06T05:04:11;101085.59;;;9.76;54.77
13593;BME280;6867;50.998;4.250;2023-04-06T05:06:39;101090.59;;;9.79;54.93
13593;BME280;6867;50.998;4.250;2023-04-06T05:09:06;101103.59;;;9.82;54.71
13593;BME280;6867;50.998;4.250;2023-04-06T05:11:33;101099.47;;;9.80;55.27
13593;BME280;6867;50.998;4.250;2023-04-06T05:14:00;101102.53;;;9.77;55.12
13593;BME280;6867;50.998;4.250;2023-04-06T05:16:26;101101.78;;;9.83;55.65
13593;BME280;6867;50.998;4.250;2023-04-06T05:18:53;101115.22;;;9.89;55.89
13593;BME280;6867;50.998;4.250;2023-04-06T05:21:23;101114.00;;;9.92;55.02
13593;BME280;6867;50.998;4.250;2023-04-06T05:23:51;101122.16;;;10.05;54.65
13593;BME280;6867;50.998;4.250;2023-04-06T05:26:19;101117.38;;;10.01;55.51
13593;BME280;6867;50.998;4.250;2023-04-06T05:28:46;101126.69;;;10.05;55.97
13593;BME280;6867;50.998;4.250;2023-04-06T05:31:13;101129.25;;;10.13;55.26
13593;BME280;6867;50.998;4.250;2023-04-06T05:33:40;101151.69;;;10.05;55.90
13593;BME280;6867;50.998;4.250;2023-04-06T05:36:07;101155.50;;;10.17;55.63
13593;BME280;6867;50.998;4.250;2023-04-06T05:38:34;101162.47;;;10.12;56.96
13593;BME280;6867;50.998;4.250;2023-04-06T05:41:02;101174.72;;;10.21;56.56
13593;BME280;6867;50.998;4.250;2023-04-06T05:43:29;101167.97;;;10.25;56.54
13593;BME280;6867;50.998;4.250;2023-04-06T05:45:55;101178.03;;;10.23;56.82
13593;BME280;6867;50.998;4.250;2023-04-06T05:48:22;101190.41;;;10.24;56.79
13593;BME280;6867;50.998;4.250;2023-04-06T05:50:49;101195.53;;;10.40;57.03
13593;BME280;6867;50.998;4.250;2023-04-06T05:53:16;101199.16;;;10.54;56.68
13593;BME280;6867;50.998;4.250;2023-04-06T05:55:43;101219.16;;;10.45;57.19
13593;BME280;6867;50.998;4.250;2023-04-06T05:58:11;101208.56;;;10.43;57.70
13593;BME280;6867;50.998;4.250;2023-04-06T06:00:38;101219.47;;;10.35;58.40
13593;BME280;6867;50.998;4.250;2023-04-06T06:03:05;101216.88;;;10.48;57.70
13593;BME280;6867;50.998;4.250;2023-04-06T06:05:33;101212.91;;;10.44;58.05
13593;BME280;6867;50.998;4.250;2023-04-06T06:08:00;101222.38;;;10.40;58.01
13593;BME280;6867;50.998;4.250;2023-04-06T06:10:27;101222.81;;;10.37;59.06
13593;BME280;6867;50.998;4.250;2023-04-06T06:12:54;101226.31;;;10.38;58.32
13593;BME280;6867;50.998;4.250;2023-04-06T06:15:22;101236.41;;;10.36;59.40
13593;BME280;6867;50.998;4.250;2023-04-06T06:17:49;101232.50;;;10.38;58.96
13593;BME280;6867;50.998;4.250;2023-04-06T06:20:16;101354.06;;;10.47;62.22
13593;BME280;6867;50.998;4.250;2023-04-06T06:22:43;101294.00;;;10.55;60.62
13593;BME280;6867;50.998;4.250;2023-04-06T06:25:10;101277.00;;;10.47;60.46
13593;BME280;6867;50.998;4.250;2023-04-06T06:27:36;101291.16;;;10.35;61.13
13593;BME280;6867;50.998;4.250;2023-04-06T06:30:04;101275.34;;;10.46;61.14
13593;BME280;6867;50.998;4.250;2023-04-06T06:32:32;101285.69;;;10.50;61.15
13593;BME280;6867;50.998;4.250;2023-04-06T06:34:59;101260.06;;;10.47;61.02
13593;BME280;6867;50.998;4.250;2023-04-06T06:37:26;101253.88;;;10.53;60.62
13593;BME280;6867;50.998;4.250;2023-04-06T06:39:53;101274.75;;;10.51;61.45
13593;BME280;6867;50.998;4.250;2023-04-06T06:42:20;101276.16;;;10.47;61.62
13593;BME280;6867;50.998;4.250;2023-04-06T06:44:46;101293.50;;;10.44;61.84
13593;BME280;6867;50.998;4.250;2023-04-06T06:47:13;101287.16;;;10.52;62.44
13593;BME280;6867;50.998;4.250;2023-04-06T06:49:41;101287.34;;;10.51;63.00
13593;BME280;6867;50.998;4.250;2023-04-06T06:52:08;101297.22;;;10.43;63.58
13593;BME280;6867;50.998;4.250;2023-04-06T06:54:35;101289.00;;;10.52;63.66
13593;BME280;6867;50.998;4.250;2023-04-06T06:57:02;101289.53;;;10.40;64.43
13593;BME280;6867;50.998;4.250;2023-04-06T06:59:29;101284.28;;;10.32;64.41
13593;BME280;6867;50.998;4.250;2023-04-06T07:01:56;101280.06;;;10.44;64.54
13593;BME280;6867;50.998;4.250;2023-04-06T07:04:23;101302.47;;;10.30;65.59
13593;BME280;6867;50.998;4.250;2023-04-06T07:06:51;101302.84;;;10.27;65.65
13593;BME280;6867;50.998;4.250;2023-04-06T07:09:18;101294.03;;;10.33;66.51
13593;BME280;6867;50.998;4.250;2023-04-06T07:11:45;101297.41;;;10.42;66.24
13593;BME280;6867;50.998;4.250;2023-04-06T07:14:12;101295.03;;;10.54;66.69
13593;BME280;6867;50.998;4.250;2023-04-06T07:16:38;101286.31;;;10.52;66.16
13593;BME280;6867;50.998;4.250;2023-04-06T07:19:06;101284.69;;;10.57;66.28
13593;BME280;6867;50.998;4.250;2023-04-06T07:21:34;101286.53;;;10.50;67.48
13593;BME280;6867;50.998;4.250;2023-04-06T07:24:03;101298.00;;;10.37;67.74
13593;BME280;6867;50.998;4.250;2023-04-06T07:26:30;101299.50;;;10.46;67.60
13593;BME280;6867;50.998;4.250;2023-04-06T07:28:57;101313.31;;;10.43;69.03
13593;BME280;6867;50.998;4.250;2023-04-06T07:31:23;101306.09;;;10.44;69.17
13593;BME280;6867;50.998;4.250;2023-04-06T07:33:51;101303.66;;;10.49;69.44
13593;BME280;6867;50.998;4.250;2023-04-06T07:36:18;101307.84;;;10.30;70.14
13593;BME280;6867;50.998;4.250;2023-04-06T07:38:44;101310.59;;;10.37;70.40
13593;BME280;6867;50.998;4.250;2023-04-06T07:41:13;101312.63;;;10.35;71.31
13593;BME280;6867;50.998;4.250;2023-04-06T07:43:40;101312.81;;;10.12;71.93
13593;BME280;6867;50.998;4.250;2023-04-06T07:46:06;101299.97;;;10.50;70.91
13593;BME280;6867;50.998;4.250;2023-04-06T07:48:33;101307.25;;;10.35;71.20
13593;BME280;6867;50.998;4.250;2023-04-06T07:51:01;101306.16;;;10.08;71.58
13593;BME280;6867;50.998;4.250;2023-04-06T07:53:28;101307.16;;;9.85;73.11
13593;BME280;6867;50.998;4.250;2023-04-06T07:55:54;101302.19;;;9.67;73.56
13593;BME280;6867;50.998;4.250;2023-04-06T07:58:23;101301.41;;;9.88;73.47
13593;BME280;6867;50.998;4.250;2023-04-06T08:00:50;101297.47;;;9.69;73.39
13593;BME280;6867;50.998;4.250;2023-04-06T08:03:17;101286.00;;;9.97;73.32
13593;BME280;6867;50.998;4.250;2023-04-06T08:05:46;101292.59;;;10.16;73.08
13593;BME280;6867;50.998;4.250;2023-04-06T08:08:12;101276.22;;;9.89;73.76
13593;BME280;6867;50.998;4.250;2023-04-06T08:10:39;101275.06;;;9.98;72.99
13593;BME280;6867;50.998;4.250;2023-04-06T08:13:06;101280.59;;;10.12;73.72
13593;BME280;6867;50.998;4.250;2023-04-06T08:15:34;101278.88;;;10.26;72.87
13593;BME280;6867;50.998;4.250;2023-04-06T08:18:01;101265.38;;;9.97;72.94
13593;BME280;6867;50.998;4.250;2023-04-06T08:20:28;101279.03;;;10.24;73.91
13593;BME280;6867;50.998;4.250;2023-04-06T08:22:55;101265.47;;;10.26;72.89
13593;BME280;6867;50.998;4.250;2023-04-06T08:25:22;101261.94;;;10.25;72.44
13593;BME280;6867;50.998;4.250;2023-04-06T08:27:48;101267.19;;;10.33;73.04
13593;BME280;6867;50.998;4.250;2023-04-06T08:30:15;101275.53;;;10.45;73.48
13593;BME280;6867;50.998;4.250;2023-04-06T08:32:45;101268.72;;;10.00;73.76
13593;BME280;6867;50.998;4.250;2023-04-06T08:35:12;101280.78;;;10.32;73.67
13593;BME280;6867;50.998;4.250;2023-04-06T08:37:39;101273.66;;;10.03;73.61
13593;BME280;6867;50.998;4.250;2023-04-06T08:40:07;101266.28;;;10.26;73.50
13593;BME280;6867;50.998;4.250;2023-04-06T08:42:40;101278.59;;;10.20;74.43
13593;BME280;6867;50.998;4.250;2023-04-06T08:45:08;101268.47;;;10.37;73.67
13593;BME280;6867;50.998;4.250;2023-04-06T08:47:36;101264.06;;;10.30;73.53
13593;BME280;6867;50.998;4.250;2023-04-06T08:50:06;101276.69;;;10.36;74.62
13593;BME280;6867;50.998;4.250;2023-04-06T08:52:34;101271.97;;;10.38;73.94
13593;BME280;6867;50.998;4.250;2023-04-06T08:55:01;101273.13;;;10.57;74.46
13593;BME280;6867;50.998;4.250;2023-04-06T08:57:28;101273.66;;;10.73;74.51
13593;BME280;6867;50.998;4.250;2023-04-06T08:59:57;101264.63;;;10.81;73.80
13593;BME280;6867;50.998;4.250;2023-04-06T09:02:27;101250.06;;;10.62;73.42
13593;BME280;6867;50.998;4.250;2023-04-06T09:04:54;101257.28;;;10.96;73.11
13593;BME280;6867;50.998;4.250;2023-04-06T09:07:22;101253.13;;;10.94;72.86
13593;BME280;6867;50.998;4.250;2023-04-06T09:09:49;101250.59;;;10.51;73.98
13593;BME280;6867;50.998;4.250;2023-04-06T09:12:24;101272.59;;;10.68;74.16
13593;BME280;6867;50.998;4.250;2023-04-06T09:14:52;101247.06;;;10.51;74.10
13593;BME280;6867;50.998;4.250;2023-04-06T09:17:22;101269.97;;;10.75;74.12
13593;BME280;6867;50.998;4.250;2023-04-06T09:19:49;101252.09;;;10.95;73.86
13593;BME280;6867;50.998;4.250;2023-04-06T09:22:16;101275.59;;;10.80;74.67
13593;BME280;6867;50.998;4.250;2023-04-06T09:24:46;101255.44;;;10.69;73.69
13593;BME280;6867;50.998;4.250;2023-04-06T09:27:14;101260.75;;;10.56;74.39
13593;BME280;6867;50.998;4.250;2023-04-06T09:29:41;101247.97;;;10.92;73.52
13593;BME280;6867;50.998;4.250;2023-04-06T09:32:09;101239.31;;;10.69;73.60
13593;BME280;6867;50.998;4.250;2023-04-06T09:34:37;101255.94;;;10.79;73.74
13593;BME280;6867;50.998;4.250;2023-04-06T09:37:12;101249.22;;;10.96;73.66
13593;BME280;6867;50.998;4.250;2023-04-06T09:39:39;101234.03;;;11.17;73.60
13593;BME280;6867;50.998;4.250;2023-04-06T09:42:08;101252.47;;;10.85;73.99
13593;BME280;6867;50.998;4.250;2023-04-06T09:44:34;101246.47;;;10.90;74.05
13593;BME280;6867;50.998;4.250;2023-04-06T09:47:06;101254.38;;;10.91;74.67
13593;BME280;6867;50.998;4.250;2023-04-06T09:49:33;101250.72;;;10.71;74.63
13593;BME280;6867;50.998;4.250;2023-04-06T09:52:03;101249.00;;;10.91;74.90
13593;BME280;6867;50.998;4.250;2023-04-06T09:54:31;101265.13;;;10.91;75.17
13593;BME280;6867;50.998;4.250;2023-04-06T09:57:03;101266.50;;;10.81;75.72
13593;BME280;6867;50.998;4.250;2023-04-06T09:59:39;101254.19;;;10.65;75.86
13593;BME280;6867;50.998;4.250;2023-04-06T10:02:09;101261.47;;;10.43;76.49
13593;BME280;6867;50.998;4.250;2023-04-06T10:04:43;101255.13;;;10.51;76.58
13593;BME280;6867;50.998;4.250;2023-04-06T10:07:10;101272.22;;;10.43;76.81
13593;BME280;6867;50.998;4.250;2023-04-06T10:09:38;101256.28;;;10.69;76.94
13593;BME280;6867;50.998;4.250;2023-04-06T10:12:05;101260.00;;;10.68;76.94
13593;BME280;6867;50.998;4.250;2023-04-06T10:14:34;101252.16;;;10.67;76.73
13593;BME280;6867;50.998;4.250;2023-04-06T10:17:03;101229.88;;;10.45;76.51
13593;BME280;6867;50.998;4.250;2023-04-06T10:19:36;101247.84;;;10.72;76.14
13593;BME280;6867;50.998;4.250;2023-04-06T10:22:08;101228.34;;;10.64;76.25
13593;BME280;6867;50.998;4.250;2023-04-06T10:24:38;101235.41;;;11.00;75.72
13593;BME280;6867;50.998;4.250;2023-04-06T10:27:06;101223.59;;;11.01;75.74
13593;BME280;6867;50.998;4.250;2023-04-06T10:29:46;101248.28;;;11.17;76.36
13593;BME280;6867;50.998;4.250;2023-04-06T10:32:14;101232.34;;;11.16;76.36
13593;BME280;6867;50.998;4.250;2023-04-06T10:34:40;101223.22;;;11.04;75.78
13593;BME280;6867;50.998;4.250;2023-04-06T10:37:12;101223.34;;;11.43;75.94
13593;BME280;6867;50.998;4.250;2023-04-06T10:39:46;101224.81;;;11.46;76.38
13593;BME280;6867;50.998;4.250;2023-04-06T10:42:13;101225.63;;;11.40;75.80
13593;BME280;6867;50.998;4.250;2023-04-06T10:44:42;101210.59;;;11.72;75.36
13593;BME280;6867;50.998;4.250;2023-04-06T10:47:15;101196.16;;;12.26;74.36
13593;BME280;6867;50.998;4.250;2023-04-06T10:49:43;101177.50;;;12.38;72.93
13593;BME280;6867;50.998;4.250;2023-04-06T10:52:09;101162.91;;;12.72;71.87
13593;BME280;6867;50.998;4.250;2023-04-06T10:54:41;101161.91;;;12.53;71.84
13593;BME280;6867;50.998;4.250;2023-04-06T10:57:09;101170.44;;;12.37;72.12
13593;BME280;6867;50.998;4.250;2023-04-06T10:59:35;101139.59;;;12.26;71.17
13593;BME280;6867;50.998;4.250;2023-04-06T11:02:02;101128.66;;;12.01;71.26
13593;BME280;6867;50.998;4.250;2023-04-06T11:04:30;101141.06;;;12.09;71.67
13593;BME280;6867;50.998;4.250;2023-04-06T11:06:57;101169.66;;;11.96;72.65
13593;BME280;6867;50.998;4.250;2023-04-06T11:09:24;101148.72;;;12.25;71.77
13593;BME280;6867;50.998;4.250;2023-04-06T11:11:52;101140.94;;;12.62;70.71
13593;BME280;6867;50.998;4.250;2023-04-06T11:14:19;101141.03;;;12.35;70.69
13593;BME280;6867;50.998;4.250;2023-04-06T11:16:46;101166.28;;;12.48;71.45
13593;BME280;6867;50.998;4.250;2023-04-06T11:19:14;101141.47;;;12.26;70.92
13593;BME280;6867;50.998;4.250;2023-04-06T11:21:43;101158.88;;;12.10;71.36
13593;BME280;6867;50.998;4.250;2023-04-06T11:24:13;101165.09;;;11.90;72.20
13593;BME280;6867;50.998;4.250;2023-04-06T11:26:41;101154.50;;;11.82;72.19
13593;BME280;6867;50.998;4.250;2023-04-06T11:29:09;101160.72;;;11.83;72.36
13593;BME280;6867;50.998;4.250;2023-04-06T11:31:40;101166.69;;;11.78;72.71
13593;BME280;6867;50.998;4.250;2023-04-06T11:34:12;101167.78;;;12.04;72.80
13593;BME280;6867;50.998;4.250;2023-04-06T11:36:44;101164.25;;;12.10;72.41
13593;BME280;6867;50.998;4.250;2023-04-06T11:39:11;101166.69;;;11.65;73.33
13593;BME280;6867;50.998;4.250;2023-04-06T11:41:38;101161.16;;;11.86;73.35
13593;BME280;6867;50.998;4.250;2023-04-06T11:44:06;101175.03;;;11.83;74.02
13593;BME280;6867;50.998;4.250;2023-04-06T11:46:33;101152.03;;;12.14;73.39
13593;BME280;6867;50.998;4.250;2023-04-06T11:49:00;101142.50;;;12.18;72.84
13593;BME280;6867;50.998;4.250;2023-04-06T11:51:27;101147.81;;;12.58;72.83
13593;BME280;6867;50.998;4.250;2023-04-06T11:53:55;101148.28;;;12.35;72.83
13593;BME280;6867;50.998;4.250;2023-04-06T11:56:23;101145.41;;;12.23;72.97
13593;BME280;6867;50.998;4.250;2023-04-06T11:58:51;101142.53;;;12.05;73.22
13593;BME280;6867;50.998;4.250;2023-04-06T12:01:17;101161.13;;;12.19;74.11
13593;BME280;6867;50.998;4.250;2023-04-06T12:03:44;101159.81;;;12.62;73.88
13593;BME280;6867;50.998;4.250;2023-04-06T12:06:11;101143.59;;;12.82;72.25
13593;BME280;6867;50.998;4.250;2023-04-06T12:08:38;101148.28;;;13.00;72.52
13593;BME280;6867;50.998;4.250;2023-04-06T12:11:06;101129.28;;;12.81;72.36
13593;BME280;6867;50.998;4.250;2023-04-06T12:13:33;101133.44;;;12.84;72.02
13593;BME280;6867;50.998;4.250;2023-04-06T12:16:00;101130.03;;;12.50;72.78
13593;BME280;6867;50.998;4.250;2023-04-06T12:18:27;101141.25;;;12.20;73.82
13593;BME280;6867;50.998;4.250;2023-04-06T12:20:53;101150.56;;;12.31;74.92
13593;BME280;6867;50.998;4.250;2023-04-06T12:23:20;101150.09;;;12.61;74.32
13593;BME280;6867;50.998;4.250;2023-04-06T12:25:47;101138.75;;;12.32;74.51
13593;BME280;6867;50.998;4.250;2023-04-06T12:28:15;101151.41;;;12.18;75.05
13593;BME280;6867;50.998;4.250;2023-04-06T12:30:42;101138.59;;;11.94;75.14
13593;BME280;6867;50.998;4.250;2023-04-06T12:33:09;101163.22;;;11.98;76.26
13593;BME280;6867;50.998;4.250;2023-04-06T12:35:36;101139.41;;;12.01;76.04
13593;BME280;6867;50.998;4.250;2023-04-06T12:38:04;101135.06;;;12.13;75.83
13593;BME280;6867;50.998;4.250;2023-04-06T12:40:30;101138.56;;;12.27;75.60
13593;BME280;6867;50.998;4.250;2023-04-06T12:42:57;101139.16;;;12.36;75.57
13593;BME280;6867;50.998;4.250;2023-04-06T12:45:25;101131.78;;;11.91;76.11
13593;BME280;6867;50.998;4.250;2023-04-06T12:47:52;101131.28;;;11.61;76.08
13593;BME280;6867;50.998;4.250;2023-04-06T12:50:19;101145.16;;;11.65;77.17
13593;BME280;6867;50.998;4.250;2023-04-06T12:52:46;101131.13;;;11.83;76.80
13593;BME280;6867;50.998;4.250;2023-04-06T12:55:13;101152.59;;;11.56;77.70
13593;BME280;6867;50.998;4.250;2023-04-06T12:57:40;101146.84;;;11.72;78.40
13593;BME280;6867;50.998;4.250;2023-04-06T13:00:08;101135.84;;;12.20;77.84
13593;BME280;6867;50.998;4.250;2023-04-06T13:02:36;101111.88;;;11.86;76.95
13593;BME280;6867;50.998;4.250;2023-04-06T13:05:04;101124.28;;;11.80;77.83